Half Moon — WDE8672 — position and weather

sailwx.info

Track history (hours):
 
Tides and Currents Weather Stations Pressure Air Temp Water Temp Dewpoint Dewpoint Depression Visibility Wind Speed Wind Dir Waves Ship Positions

Half Moon (USA)

Ship's website: http://www.halfmoon.mus.ny.us/

Owner: Holland Village, Inc., Lumberton, NC. More information available from US FCC via Universal Licensing System and Coast Guard Vessel Documentation Center.

Last reported at 2018-May-17 19:43 UTC. Time now 2018-May-23 11:12 UTC.
Position N 52°38' E 005°04'.

Length 31 m; draft 2.7 m.

Type: Other ship. MMSI: 366464000.

Date/timePositionNaut miles runAvg speedWind from/ knotsBaromVisibWave heightAir tempDewpointWater temp
2018-May-17 19:43N 52°38' E 005°04'0 0.1
2018-May-17 19:30N 52°38' E 005°04'1 1.6
2018-May-17 19:00N 52°37' E 005°03'2 3.5
2018-May-17 18:31N 52°37' E 005°06'1 2.0
2018-May-17 18:01N 52°37' E 005°04'0 0.5
2018-May-17 17:31N 52°37' E 005°04'0 0.5
2018-May-17 17:00N 52°38' E 005°05'1 1.3
2018-May-17 16:31N 52°38' E 005°04'  
2018-May-11 20:14N 52°38' E 005°04'0 0.0
2018-May-11 19:56N 52°38' E 005°04'0 0.0
2018-May-11 19:31N 52°38' E 005°04'0 0.4
2018-May-11 19:00N 52°38' E 005°04'1 1.9
2018-May-11 18:30N 52°37' E 005°04'1 2.8
2018-May-11 18:01N 52°36' E 005°05'1 2.6
2018-May-11 17:31N 52°35' E 005°07'2 3.4
2018-May-11 17:00N 52°36' E 005°05'2 3.3
2018-May-11 16:31N 52°38' E 005°04'0 0.8
2018-May-11 15:58N 52°38' E 005°04'0 0.0
2018-May-11 15:28N 52°38' E 005°04'  
Track history (hours):
 
Tides and Currents Weather Stations Pressure Air Temp Water Temp Dewpoint Dewpoint Depression Visibility Wind Speed Wind Dir Waves Ship Positions

Half Moon (USA)

Ship's website: http://www.halfmoon.mus.ny.us/

Owner: Holland Village, Inc., Lumberton, NC. More information available from US FCC via Universal Licensing System and Coast Guard Vessel Documentation Center.

Last reported at 2018-May-17 19:43 UTC. Time now 2018-May-23 11:12 UTC.
Position N 52°38' E 005°04'.

Length 31 m; draft 2.7 m.

Type: Other ship. MMSI: 366464000.

Date/timePositionNaut miles runAvg speedWind from/ knotsBaromVisibWave heightAir tempDewpointWater temp
2018-May-17 19:43N 52°38' E 005°04'0 0.1
2018-May-17 19:30N 52°38' E 005°04'1 1.6
2018-May-17 19:00N 52°37' E 005°03'2 3.5
2018-May-17 18:31N 52°37' E 005°06'1 2.0
2018-May-17 18:01N 52°37' E 005°04'0 0.5
2018-May-17 17:31N 52°37' E 005°04'0 0.5
2018-May-17 17:00N 52°38' E 005°05'1 1.3
2018-May-17 16:31N 52°38' E 005°04'  
2018-May-11 20:14N 52°38' E 005°04'0 0.0
2018-May-11 19:56N 52°38' E 005°04'0 0.0
2018-May-11 19:31N 52°38' E 005°04'0 0.4
2018-May-11 19:00N 52°38' E 005°04'1 1.9
2018-May-11 18:30N 52°37' E 005°04'1 2.8
2018-May-11 18:01N 52°36' E 005°05'1 2.6
2018-May-11 17:31N 52°35' E 005°07'2 3.4
2018-May-11 17:00N 52°36' E 005°05'2 3.3
2018-May-11 16:31N 52°38' E 005°04'0 0.8
2018-May-11 15:58N 52°38' E 005°04'0 0.0
2018-May-11 15:28N 52°38' E 005°04'  

Dump ship's entire track history